Innisfail, Australia
Current Conditions -  °F | °C
As of 1:30 PM on Friday 31 Oct 2014 (Local Time) from YBCS Reporting Station
Broken Clouds Broken Clouds  
Wind Chill: 86°   Ceiling: 30000
Heat Index: 87°   Visibility: 6mi
Dew Point: 64°   Wind: 14mph
Humidity: 48%   Direction: 40°NE
Pressure: 29.88"   Gusts: NA
Location:  17.52°S, 146.03°E
Report Text: YBCS 310330Z 04012KT 9999 FEW035 BKN300 30/18 Q1012
Loading
Personal Weather Stations






























Interactive Weather Map
Tropical Storm Tracking
New forecast layout! Learn more

10-Day Weather Forecast

Advertisements
Track Severe Weather on mobile